createdAt,value
2018-01-15T00:00:19.358Z,42.73
2018-01-15T00:02:47.203Z,28.90
2018-01-15T00:05:15.049Z,34.33
2018-01-15T00:07:43.021Z,34.90
2018-01-15T00:10:10.912Z,34.50
2018-01-15T00:12:38.799Z,40.83
2018-01-15T00:15:06.689Z,33.43
2018-01-15T00:17:34.552Z,39.90
2018-01-15T00:20:02.426Z,36.67
2018-01-15T00:22:32.231Z,29.13
2018-01-15T00:25:00.084Z,40.67
2018-01-15T00:27:27.966Z,37.07
2018-01-15T00:29:55.867Z,38.03
2018-01-15T00:32:23.741Z,39.90
2018-01-15T00:34:51.603Z,37.63
2018-01-15T00:37:19.475Z,40.17
2018-01-15T00:39:47.339Z,34.00
2018-01-15T00:42:15.172Z,38.37
2018-01-15T00:44:43.037Z,39.63
2018-01-15T00:47:10.897Z,38.07
2018-01-15T00:49:38.755Z,38.83
2018-01-15T00:52:06.623Z,33.70
2018-01-15T00:54:34.472Z,38.60
2018-01-15T00:57:02.307Z,33.07
2018-01-15T00:59:30.195Z,41.90
2018-01-15T01:01:58.044Z,36.40
2018-01-15T01:04:25.892Z,40.43
2018-01-15T01:06:53.756Z,39.37
2018-01-15T01:09:21.597Z,40.13
2018-01-15T01:11:49.457Z,43.73
2018-01-15T01:14:17.367Z,39.13
2018-01-15T01:16:45.689Z,40.23
2018-01-15T01:19:13.627Z,42.37
2018-01-15T01:21:41.543Z,36.80
2018-01-15T01:24:09.399Z,37.60
2018-01-15T01:26:37.278Z,39.93
2018-01-15T01:29:05.171Z,43.67
2018-01-15T01:31:33.072Z,40.90
2018-01-15T01:34:00.933Z,33.17
2018-01-15T01:36:28.800Z,37.70
2018-01-15T01:38:56.663Z,36.60
2018-01-15T01:41:24.502Z,33.10
2018-01-15T01:43:52.368Z,42.80
2018-01-15T01:46:20.224Z,31.17
2018-01-15T01:48:54.111Z,35.90
2018-01-15T01:51:21.965Z,36.70
2018-01-15T01:53:49.806Z,30.97
2018-01-15T01:56:17.682Z,35.57
2018-01-15T01:58:45.532Z,42.33
2018-01-15T02:01:13.389Z,45.17
2018-01-15T02:03:41.272Z,40.70
2018-01-15T02:06:09.134Z,36.20
2018-01-15T02:08:36.976Z,37.00
2018-01-15T02:11:04.864Z,39.00
2018-01-15T02:13:32.713Z,40.00
2018-01-15T02:16:00.561Z,37.27
2018-01-15T02:18:28.428Z,43.03
2018-01-15T02:20:56.283Z,35.13
2018-01-15T02:23:24.124Z,32.57
2018-01-15T02:25:52.016Z,37.30
2018-01-15T02:28:19.859Z,45.93
2018-01-15T02:30:47.720Z,46.93
2018-01-15T02:33:15.654Z,44.20
2018-01-15T02:35:43.508Z,40.20
2018-01-15T02:38:11.375Z,45.60
2018-01-15T02:40:39.715Z,35.77
2018-01-15T02:43:07.658Z,42.70
2018-01-15T02:45:35.520Z,43.03
2018-01-15T02:48:03.393Z,39.27
2018-01-15T02:50:31.237Z,46.87
2018-01-15T02:52:59.083Z,44.90
2018-01-15T02:55:26.952Z,43.60
2018-01-15T02:57:54.790Z,42.83
2018-01-15T03:00:22.662Z,48.13
2018-01-15T03:02:50.554Z,41.23
2018-01-15T03:05:18.387Z,42.30
2018-01-15T03:07:46.267Z,43.90
2018-01-15T03:10:14.216Z,41.67
2018-01-15T03:12:42.065Z,45.20
2018-01-15T03:15:09.915Z,40.90
2018-01-15T03:17:37.785Z,44.60
2018-01-15T03:20:05.621Z,44.23
2018-01-15T03:22:33.480Z,36.57
2018-01-15T03:25:01.366Z,46.03
2018-01-15T03:27:29.227Z,46.30
2018-01-15T03:29:57.081Z,37.80
2018-01-15T03:32:24.949Z,41.80
2018-01-15T03:34:52.847Z,48.63
2018-01-15T03:37:20.689Z,41.43
2018-01-15T03:39:48.637Z,43.20
2018-01-15T03:42:16.474Z,44.47
2018-01-15T03:44:44.375Z,42.20
2018-01-15T03:47:12.254Z,48.40
2018-01-15T03:49:40.104Z,36.37
2018-01-15T03:52:07.959Z,35.90
2018-01-15T03:54:35.899Z,47.23
2018-01-15T03:57:03.756Z,44.70
2018-01-15T03:59:31.596Z,39.07
2018-01-15T04:01:59.464Z,47.20
2018-01-15T04:04:27.337Z,44.13
2018-01-15T04:06:55.175Z,47.70
2018-01-15T04:09:23.043Z,40.03
2018-01-15T04:11:50.876Z,46.20
2018-01-15T04:14:18.707Z,44.10
2018-01-15T04:16:46.572Z,39.90
2018-01-15T04:19:14.430Z,55.70
2018-01-15T04:21:42.273Z,46.60
2018-01-15T04:24:10.345Z,46.63
2018-01-15T04:26:38.200Z,41.97
2018-01-15T04:29:06.049Z,48.77
2018-01-15T04:31:33.963Z,44.00
2018-01-15T04:34:01.800Z,41.73
2018-01-15T04:36:29.721Z,39.70
2018-01-15T04:38:57.595Z,48.53
2018-01-15T04:41:25.435Z,48.70
2018-01-15T04:43:53.271Z,45.83
2018-01-15T04:46:21.356Z,38.50
2018-01-15T04:48:49.204Z,45.20
2018-01-15T04:51:17.056Z,43.53
2018-01-15T04:53:44.920Z,45.87
2018-01-15T04:56:12.782Z,41.63
2018-01-15T04:58:40.624Z,45.87
2018-01-15T05:01:08.621Z,35.40
2018-01-15T05:03:36.504Z,43.70
2018-01-15T05:06:04.353Z,44.33
2018-01-15T05:08:32.225Z,38.30
2018-01-15T05:11:00.090Z,45.47
2018-01-15T05:13:27.952Z,38.57
2018-01-15T05:15:56.659Z,43.93
2018-01-15T05:18:24.503Z,43.50
2018-01-15T05:20:52.364Z,33.63
2018-01-15T05:23:20.249Z,43.33
2018-01-15T05:25:48.223Z,44.03
2018-01-15T05:28:16.068Z,50.33
2018-01-15T05:30:43.937Z,37.70
2018-01-15T05:33:11.787Z,34.27
2018-01-15T05:35:40.480Z,44.00
2018-01-15T05:38:08.402Z,47.83
2018-01-15T05:40:36.251Z,40.40
2018-01-15T05:43:04.156Z,45.67
2018-01-15T05:45:32.021Z,38.07
2018-01-15T05:47:59.860Z,47.20
2018-01-15T05:50:27.729Z,51.00
2018-01-15T05:52:55.656Z,49.07
2018-01-15T05:55:23.496Z,49.00
2018-01-15T05:57:51.420Z,44.00
2018-01-15T06:00:19.296Z,52.83
2018-01-15T06:02:47.138Z,43.07
2018-01-15T06:05:15.019Z,50.77
2018-01-15T06:07:42.901Z,46.53
2018-01-15T06:10:10.752Z,44.97
2018-01-15T06:12:38.682Z,49.30
2018-01-15T06:15:06.595Z,46.93
2018-01-15T06:17:34.463Z,43.87
2018-01-15T06:20:02.340Z,36.93
2018-01-15T06:22:30.222Z,43.07
2018-01-15T06:24:58.087Z,43.60
2018-01-15T06:27:25.934Z,45.70
2018-01-15T06:29:53.808Z,50.80
2018-01-15T06:32:21.656Z,43.83
2018-01-15T06:34:49.562Z,46.90
2018-01-15T06:37:17.439Z,44.50
2018-01-15T06:39:45.338Z,47.47
2018-01-15T06:42:13.235Z,45.27
2018-01-15T06:44:41.131Z,53.10
2018-01-15T06:47:09.067Z,50.97
2018-01-15T06:49:36.939Z,47.00
2018-01-15T06:52:04.834Z,45.73
2018-01-15T06:54:32.692Z,52.33
2018-01-15T06:57:00.549Z,57.13
2018-01-15T06:59:28.435Z,46.60
2018-01-15T07:01:56.295Z,44.23
2018-01-15T07:04:24.139Z,46.67
2018-01-15T07:06:52.013Z,49.40
2018-01-15T07:09:19.862Z,38.97
2018-01-15T07:11:47.724Z,42.60
2018-01-15T07:14:15.627Z,48.67
2018-01-15T07:16:43.490Z,42.10
2018-01-15T07:19:11.344Z,50.73
2018-01-15T07:21:39.229Z,40.20
2018-01-15T07:24:07.094Z,39.93
2018-01-15T07:26:34.924Z,38.53
2018-01-15T07:29:02.856Z,48.00
2018-01-15T07:31:30.711Z,42.13
2018-01-15T07:33:58.552Z,42.63
2018-01-15T07:36:26.450Z,53.57
2018-01-15T07:38:54.308Z,51.47
2018-01-15T07:41:22.213Z,48.33
2018-01-15T07:43:50.069Z,46.77
2018-01-15T07:46:17.916Z,53.50
2018-01-15T07:48:45.784Z,48.00
2018-01-15T07:51:13.672Z,51.27
2018-01-15T07:53:41.526Z,50.23
2018-01-15T07:56:09.364Z,53.50
2018-01-15T07:58:37.310Z,48.70
2018-01-15T08:01:05.157Z,47.13
2018-01-15T08:03:33.009Z,52.80
2018-01-15T08:06:00.884Z,45.70
2018-01-15T08:08:28.742Z,58.93
2018-01-15T08:10:56.581Z,48.33
2018-01-15T08:13:24.489Z,45.13
2018-01-15T08:15:52.331Z,43.67
2018-01-15T08:18:20.187Z,45.47
2018-01-15T08:20:48.080Z,53.90
2018-01-15T08:23:15.909Z,46.37
2018-01-15T08:25:43.739Z,48.73
2018-01-15T08:28:11.599Z,36.83
2018-01-15T08:30:39.537Z,41.20
2018-01-15T08:33:07.389Z,38.43
2018-01-15T08:35:35.285Z,52.17
2018-01-15T08:38:04.115Z,42.03
2018-01-15T08:40:31.949Z,40.30
2018-01-15T08:42:59.840Z,39.30
2018-01-15T08:45:27.695Z,43.00
2018-01-15T08:47:55.548Z,43.97
2018-01-15T08:50:23.438Z,43.63
2018-01-15T08:52:51.286Z,43.43
2018-01-15T08:55:19.138Z,36.97
2018-01-15T08:57:47.011Z,37.30
2018-01-15T09:00:14.889Z,36.90
2018-01-15T09:02:42.740Z,39.63
2018-01-15T09:05:10.612Z,42.20
2018-01-15T09:07:38.525Z,33.23
2018-01-15T09:10:06.365Z,37.10
2018-01-15T09:12:34.223Z,35.60
2018-01-15T09:15:02.121Z,38.77
2018-01-15T09:17:29.933Z,33.97
2018-01-15T09:19:57.785Z,33.10
2018-01-15T09:22:25.655Z,37.60
2018-01-15T09:24:53.503Z,35.10
2018-01-15T09:27:21.373Z,34.30
2018-01-15T09:29:49.212Z,39.73
2018-01-15T09:35:14.508Z,40.10
2018-01-15T09:37:42.363Z,35.50
2018-01-15T09:40:10.243Z,38.13
2018-01-15T09:42:38.099Z,36.33
2018-01-15T09:45:05.937Z,32.00
2018-01-15T09:47:33.776Z,27.43
2018-01-15T09:50:01.824Z,35.00
2018-01-15T09:52:29.864Z,31.30
2018-01-15T09:54:57.692Z,33.20
2018-01-15T09:57:25.928Z,38.97
2018-01-15T09:59:53.966Z,33.00
2018-01-15T10:02:21.824Z,28.07
2018-01-15T10:04:49.842Z,35.30
2018-01-15T10:07:19.783Z,28.87
2018-01-15T10:09:47.723Z,24.50
2018-01-15T10:12:15.623Z,28.50
2018-01-15T10:14:43.525Z,32.40
2018-01-15T10:17:11.366Z,32.97
2018-01-15T10:19:39.289Z,27.87
2018-01-15T10:22:07.371Z,31.63
2018-01-15T10:24:35.315Z,27.50
2018-01-15T10:27:03.217Z,26.10
2018-01-15T10:29:31.356Z,21.30
2018-01-15T10:31:59.211Z,27.90
2018-01-15T10:34:27.759Z,31.57
2018-01-15T10:36:55.623Z,24.67
2018-01-15T10:39:23.497Z,34.53
2018-01-15T10:41:51.396Z,26.33
2018-01-15T10:44:19.237Z,24.23
2018-01-15T10:46:47.092Z,34.13
2018-01-15T10:49:14.952Z,26.80
2018-01-15T10:51:42.804Z,28.50
2018-01-15T10:54:10.653Z,25.63
2018-01-15T10:56:38.675Z,29.93
2018-01-15T10:59:06.621Z,22.20
2018-01-15T11:01:34.639Z,25.03
2018-01-15T11:04:02.520Z,22.17
2018-01-15T11:06:30.423Z,23.60
2018-01-15T11:08:58.726Z,20.13
2018-01-15T11:11:26.700Z,24.40
2018-01-15T11:13:54.548Z,21.73
2018-01-15T11:16:22.424Z,25.10
2018-01-15T11:18:50.303Z,27.40
2018-01-15T11:21:18.150Z,25.70
2018-01-15T11:23:46.077Z,22.67
2018-01-15T11:26:13.881Z,23.60
2018-01-15T11:28:41.720Z,24.13
2018-01-15T11:31:09.557Z,28.20
2018-01-15T11:33:37.412Z,24.63
2018-01-15T11:36:05.288Z,20.00
2018-01-15T11:38:33.142Z,21.80
2018-01-15T11:41:01.001Z,27.00
2018-01-15T11:43:28.872Z,23.00
2018-01-15T11:45:57.130Z,25.60
2018-01-15T11:48:25.020Z,24.17
2018-01-15T11:50:52.847Z,21.83
2018-01-15T11:53:20.685Z,19.60
2018-01-15T11:55:48.571Z,22.00
2018-01-15T11:58:16.456Z,23.10
2018-01-15T12:00:44.291Z,23.90
2018-01-15T12:03:12.167Z,21.53
2018-01-15T12:05:40.007Z,24.50
2018-01-15T12:08:07.850Z,20.93
2018-01-15T12:10:35.728Z,24.87
2018-01-15T12:13:03.601Z,24.70
2018-01-15T12:15:31.444Z,22.33
2018-01-15T12:17:59.317Z,14.87
2018-01-15T12:20:27.147Z,12.30
2018-01-15T12:22:54.994Z,20.80
2018-01-15T12:25:22.852Z,21.67
2018-01-15T12:27:50.688Z,21.97
2018-01-15T12:30:18.520Z,17.60
2018-01-15T12:32:46.393Z,19.20
2018-01-15T12:35:14.250Z,20.13
2018-01-15T12:37:42.088Z,22.37
2018-01-15T12:40:10.035Z,17.30
2018-01-15T12:42:37.887Z,20.87
2018-01-15T12:45:05.778Z,18.40
2018-01-15T12:47:33.687Z,22.50
2018-01-15T12:50:01.620Z,20.03
2018-01-15T12:52:29.504Z,19.73
2018-01-15T12:54:57.376Z,20.37
2018-01-15T12:57:25.816Z,19.47
2018-01-15T12:59:53.668Z,22.07
2018-01-15T13:02:21.552Z,20.10
2018-01-15T13:04:49.399Z,21.50
2018-01-15T13:07:23.247Z,22.47
2018-01-15T13:09:51.085Z,22.50
2018-01-15T13:12:18.992Z,17.00
2018-01-15T13:14:46.840Z,20.47
2018-01-15T13:17:14.731Z,20.83
2018-01-15T13:19:42.591Z,21.37
2018-01-15T13:22:10.528Z,19.97
2018-01-15T13:24:38.363Z,21.83
2018-01-15T13:27:06.218Z,19.50
2018-01-15T13:29:34.158Z,16.73
2018-01-15T13:32:02.003Z,18.00
2018-01-15T13:34:29.851Z,21.47
2018-01-15T13:36:57.720Z,21.80
2018-01-15T13:39:25.552Z,17.17
2018-01-15T13:41:53.449Z,22.87
2018-01-15T13:44:21.344Z,25.20
2018-01-15T13:46:49.187Z,23.70
2018-01-15T13:49:17.018Z,20.70
2018-01-15T13:51:44.871Z,20.07
2018-01-15T13:54:12.700Z,27.40
2018-01-15T13:56:40.523Z,20.10
2018-01-15T13:59:08.567Z,14.80
2018-01-15T14:01:36.476Z,20.20
2018-01-15T14:04:04.341Z,20.23
2018-01-15T14:06:32.201Z,20.30
2018-01-15T14:09:00.022Z,17.50
2018-01-15T14:11:27.853Z,19.17
2018-01-15T14:13:55.709Z,18.97
2018-01-15T14:16:23.547Z,23.20
2018-01-15T14:18:51.383Z,22.47
2018-01-15T14:21:19.373Z,19.93
2018-01-15T14:23:47.198Z,25.47
2018-01-15T14:26:30.055Z,23.37
2018-01-15T14:28:57.960Z,21.80
2018-01-15T14:31:25.805Z,21.70
2018-01-15T14:33:53.690Z,24.47
2018-01-15T14:36:21.639Z,26.63
2018-01-15T14:38:49.484Z,21.40
2018-01-15T14:41:17.356Z,20.73
2018-01-15T14:43:45.217Z,22.83
2018-01-15T14:46:13.151Z,26.00
2018-01-15T14:48:41.035Z,22.27
2018-01-15T14:51:08.885Z,21.07
2018-01-15T14:53:36.755Z,22.13
2018-01-15T14:56:04.648Z,19.50
2018-01-15T14:58:32.488Z,21.70
2018-01-15T15:01:00.351Z,21.10
2018-01-15T15:03:28.215Z,21.30
2018-01-15T15:05:56.052Z,23.00
2018-01-15T15:08:23.970Z,16.33
2018-01-15T15:10:51.849Z,17.70
2018-01-15T15:13:19.763Z,22.93
2018-01-15T15:15:47.603Z,18.57
2018-01-15T15:18:15.494Z,21.57
2018-01-15T15:20:43.436Z,25.73
2018-01-15T15:23:11.309Z,24.23
2018-01-15T15:25:39.159Z,20.60
2018-01-15T15:28:07.033Z,18.67
2018-01-15T15:30:34.873Z,24.17
2018-01-15T15:33:02.759Z,21.93
2018-01-15T15:35:30.618Z,17.13
2018-01-15T15:37:58.847Z,23.00
2018-01-15T15:40:27.528Z,21.93
2018-01-15T15:42:55.416Z,21.67
2018-01-15T15:45:23.297Z,21.73
2018-01-15T15:47:51.183Z,21.73
2018-01-15T15:50:19.264Z,22.97
2018-01-15T15:52:47.193Z,21.83
2018-01-15T15:55:15.066Z,23.13
2018-01-15T15:57:42.896Z,21.13
2018-01-15T16:00:10.747Z,17.37
2018-01-15T16:02:38.660Z,18.57
2018-01-15T16:05:06.533Z,17.70
2018-01-15T16:07:34.471Z,19.50
2018-01-15T16:10:02.446Z,18.80
2018-01-15T16:12:30.301Z,22.70
2018-01-15T16:14:58.163Z,15.63
2018-01-15T16:17:26.021Z,22.00
2018-01-15T16:19:53.864Z,24.00
2018-01-15T16:22:27.852Z,20.53
2018-01-15T16:24:55.939Z,27.67
2018-01-15T16:27:23.827Z,27.30
2018-01-15T16:29:51.714Z,25.57
2018-01-15T16:32:19.697Z,22.13
2018-01-15T16:34:47.560Z,21.17
2018-01-15T16:37:15.430Z,22.50
2018-01-15T16:39:43.290Z,24.93
2018-01-15T16:42:11.141Z,19.20
2018-01-15T16:44:39.048Z,21.07
2018-01-15T16:47:06.919Z,19.13
2018-01-15T16:49:34.989Z,25.70
2018-01-15T16:52:02.881Z,25.00
2018-01-15T16:54:30.796Z,19.27
2018-01-15T16:56:58.688Z,21.40
2018-01-15T16:59:26.590Z,21.37
2018-01-15T17:01:54.445Z,26.07
2018-01-15T17:04:22.299Z,24.07
2018-01-15T17:06:50.161Z,25.20
2018-01-15T17:09:17.999Z,18.80
2018-01-15T17:11:45.962Z,24.50
2018-01-15T17:14:13.852Z,24.90
2018-01-15T17:16:41.710Z,23.87
2018-01-15T17:19:09.559Z,26.07
2018-01-15T17:21:37.453Z,24.83
2018-01-15T17:24:05.309Z,26.00
2018-01-15T17:26:33.173Z,23.80
2018-01-15T17:29:01.180Z,22.80
2018-01-15T17:31:29.028Z,21.10
2018-01-15T17:33:56.863Z,24.77
2018-01-15T17:36:24.778Z,23.37
2018-01-15T17:38:52.629Z,19.50
2018-01-15T17:41:20.471Z,20.50
2018-01-15T17:43:48.368Z,28.10
2018-01-15T17:46:16.235Z,23.50
2018-01-15T17:48:44.128Z,22.73
2018-01-15T17:51:12.017Z,28.43
2018-01-15T17:53:39.948Z,28.40
2018-01-15T17:56:07.944Z,22.20
2018-01-15T17:58:35.820Z,29.23
2018-01-15T18:01:10.629Z,17.13
2018-01-15T18:03:38.511Z,25.13
2018-01-15T18:06:06.381Z,23.50
2018-01-15T18:08:34.256Z,25.30
2018-01-15T18:11:02.152Z,27.80
2018-01-15T18:13:30.015Z,23.37
2018-01-15T18:15:58.021Z,24.57
2018-01-15T18:18:25.902Z,24.40
2018-01-15T18:20:53.744Z,28.23
2018-01-15T18:23:21.624Z,26.03
2018-01-15T18:25:49.500Z,22.67
2018-01-15T18:28:17.347Z,29.80
2018-01-15T18:30:45.182Z,28.20
2018-01-15T18:33:13.055Z,26.83
2018-01-15T18:35:40.968Z,24.87
2018-01-15T18:38:08.818Z,30.47
2018-01-15T18:40:36.787Z,22.97
2018-01-15T18:43:04.638Z,23.77
2018-01-15T18:45:32.489Z,27.40
2018-01-15T18:48:00.384Z,21.80
2018-01-15T18:50:28.310Z,22.93
2018-01-15T18:52:56.194Z,27.53
2018-01-15T18:55:24.061Z,26.53
2018-01-15T18:57:51.904Z,22.07
2018-01-15T19:00:19.763Z,27.00
2018-01-15T19:02:47.640Z,25.77
2018-01-15T19:05:15.490Z,26.97
2018-01-15T19:07:43.364Z,26.73
2018-01-15T19:10:11.230Z,25.70
2018-01-15T19:12:39.072Z,28.73
2018-01-15T19:15:06.912Z,25.37
2018-01-15T19:17:34.811Z,23.63
2018-01-15T19:20:02.662Z,23.43
2018-01-15T19:22:30.498Z,24.90
2018-01-15T19:24:58.412Z,24.33
2018-01-15T19:27:26.400Z,18.27
2018-01-15T19:29:54.293Z,24.90
2018-01-15T19:32:22.316Z,24.00
2018-01-15T19:34:56.371Z,24.63
2018-01-15T19:37:24.348Z,28.63
2018-01-15T19:39:52.200Z,19.70
2018-01-15T19:42:20.216Z,27.17
2018-01-15T19:44:54.099Z,27.13
2018-01-15T19:47:28.020Z,21.53
2018-01-15T19:50:02.004Z,18.43
2018-01-15T19:52:35.884Z,20.00
2018-01-15T19:55:09.887Z,20.10
2018-01-15T19:57:45.031Z,23.67
2018-01-15T20:00:19.079Z,27.43
2018-01-15T20:02:52.934Z,29.13
2018-01-15T20:05:26.865Z,24.10
2018-01-15T20:08:00.868Z,27.03
2018-01-15T20:10:34.870Z,26.40
2018-01-15T20:13:02.738Z,22.07
2018-01-15T20:15:30.632Z,25.93
2018-01-15T20:17:58.510Z,20.97
2018-01-15T20:20:26.358Z,26.87
2018-01-15T20:22:54.201Z,19.00
2018-01-15T20:25:22.074Z,26.67
2018-01-15T20:27:49.919Z,26.63
2018-01-15T20:30:17.759Z,29.33
2018-01-15T20:32:45.625Z,26.70
2018-01-15T20:35:13.457Z,32.93
2018-01-15T20:37:41.294Z,23.73
2018-01-15T20:40:09.186Z,23.50
2018-01-15T20:42:37.035Z,23.70
2018-01-15T20:45:04.896Z,20.97
2018-01-15T20:47:32.797Z,23.57
2018-01-15T20:50:00.626Z,22.13
2018-01-15T20:52:28.458Z,19.23
2018-01-15T20:54:56.344Z,21.10
2018-01-15T20:57:24.163Z,25.40
2018-01-15T20:59:52.015Z,23.50
2018-01-15T21:02:19.885Z,19.83
2018-01-15T21:04:47.720Z,25.77
2018-01-15T21:07:15.546Z,27.97
2018-01-15T21:09:43.414Z,24.97
2018-01-15T21:12:11.284Z,24.37
2018-01-15T21:14:39.114Z,22.50
2018-01-15T21:17:07.003Z,21.63
2018-01-15T21:19:34.873Z,23.50
2018-01-15T21:22:02.728Z,23.07
2018-01-15T21:24:30.606Z,22.00
2018-01-15T21:26:58.440Z,23.80
2018-01-15T21:29:26.304Z,20.33
2018-01-15T21:31:54.158Z,20.43
2018-01-15T21:34:22.000Z,26.27
2018-01-15T21:36:49.862Z,15.83
2018-01-15T21:39:17.726Z,26.90
2018-01-15T21:41:45.597Z,21.87
2018-01-15T21:44:13.434Z,23.30
2018-01-15T21:46:41.312Z,22.80
2018-01-15T21:49:09.156Z,26.43
2018-01-15T21:51:37.001Z,25.70
2018-01-15T21:54:04.883Z,21.80
2018-01-15T21:56:32.720Z,22.77
2018-01-15T21:59:00.589Z,17.40
2018-01-15T22:01:29.629Z,27.77
2018-01-15T22:03:57.551Z,22.17
2018-01-15T22:06:25.486Z,23.90
2018-01-15T22:08:53.644Z,23.47
2018-01-15T22:11:21.528Z,26.27
2018-01-15T22:13:49.400Z,24.60
2018-01-15T22:16:17.268Z,27.10
2018-01-15T22:18:45.108Z,18.93
2018-01-15T22:21:13.021Z,21.37
2018-01-15T22:23:40.914Z,20.20
2018-01-15T22:26:08.763Z,24.90
2018-01-15T22:28:36.620Z,25.40
2018-01-15T22:31:04.528Z,21.20
2018-01-15T22:33:32.399Z,15.73
2018-01-15T22:36:00.323Z,21.37
2018-01-15T22:38:29.749Z,24.90
2018-01-15T22:40:57.987Z,20.00
2018-01-15T22:43:25.915Z,20.00
2018-01-15T22:45:53.829Z,19.20
2018-01-15T22:48:21.702Z,24.23
2018-01-15T22:50:49.700Z,20.60
2018-01-15T22:53:17.590Z,21.10
2018-01-15T22:55:45.521Z,24.00
2018-01-15T22:58:13.369Z,25.13
2018-01-15T23:00:43.984Z,17.40
2018-01-15T23:03:11.928Z,22.00
2018-01-15T23:05:39.982Z,19.00
2018-01-15T23:08:08.080Z,19.53
2018-01-15T23:10:39.387Z,20.23
2018-01-15T23:13:10.929Z,20.77
2018-01-15T23:15:38.897Z,22.37
2018-01-15T23:18:06.792Z,22.07
2018-01-15T23:20:34.667Z,20.30
2018-01-15T23:23:02.505Z,24.37
2018-01-15T23:25:30.344Z,22.70
2018-01-15T23:27:58.219Z,19.17
2018-01-15T23:30:26.089Z,19.20
2018-01-15T23:32:53.991Z,21.80
2018-01-15T23:35:21.908Z,17.90
2018-01-15T23:37:49.728Z,22.17
2018-01-15T23:40:17.740Z,22.47
2018-01-15T23:42:45.584Z,21.37
2018-01-15T23:45:13.773Z,18.03
2018-01-15T23:47:41.670Z,21.53
2018-01-15T23:50:09.574Z,24.07
2018-01-15T23:52:37.447Z,28.10
2018-01-15T23:55:05.312Z,18.40
2018-01-15T23:57:33.151Z,19.20
